Terminal Aerodrome Forecast
Issued by NWS Riverton, WY

Home | Current Version | Previous Version | Text Only | Print | Product List | Glossary On
Versions: 1 2 3 4 5 6 7 8 9 10 11 12 13
000
FTUS45 KRIW 290200 AAA
TAFRIW
TAF AMD
KRIW 290251Z 2903/2924 35012G18KT P6SM FEW100 OVC150
     FM290600 VRB05KT P6SM SCT080 BKN120
     FM290900 VRB06KT P6SM VCSH SCT080 BKN120
     FM291300 01010KT P6SM VCSH SCT050 BKN080
     FM292000 07008KT P6SM VCTS SCT040CB BKN050=

USA.gov is the U.S. government's official web portal to all federal, state and local government web resources and services.